createdAt,value
2018-02-10T00:00:43.217Z,100726
2018-02-10T00:05:46.292Z,100726
2018-02-10T00:10:49.791Z,100724
2018-02-10T00:15:53.692Z,100726
2018-02-10T00:20:57.910Z,100729
2018-02-10T00:26:02.371Z,100736
2018-02-10T00:31:06.639Z,100736
2018-02-10T00:36:11.115Z,100735
2018-02-10T00:41:15.285Z,100734
2018-02-10T00:46:18.804Z,100743
2018-02-10T00:51:23.254Z,100746
2018-02-10T00:56:27.165Z,100749
2018-02-10T01:01:31.403Z,100761
2018-02-10T01:06:34.925Z,100764
2018-02-10T01:11:39.163Z,100763
2018-02-10T01:16:43.083Z,100764
2018-02-10T01:21:46.931Z,100766
2018-02-10T01:26:50.831Z,100767
2018-02-10T01:31:55.087Z,100770
2018-02-10T01:36:58.952Z,100771
2018-02-10T01:42:02.422Z,100778
2018-02-10T01:47:05.891Z,100779
2018-02-10T01:52:10.331Z,100776
2018-02-10T01:57:14.800Z,100777
2018-02-10T02:02:18.259Z,100781
2018-02-10T02:07:22.737Z,100778
2018-02-10T02:12:26.212Z,100783
2018-02-10T02:17:29.330Z,100782
2018-02-10T02:22:32.415Z,100787
2018-02-10T02:27:37.105Z,100790
2018-02-10T02:32:40.191Z,100788
2018-02-10T02:37:44.087Z,100781
2018-02-10T02:42:48.526Z,100776
2018-02-10T02:47:52.435Z,100773
2018-02-10T02:52:57.025Z,100775
2018-02-10T02:58:00.155Z,100772
2018-02-10T03:03:03.639Z,100763
2018-02-10T03:08:07.515Z,100771
2018-02-10T03:13:11.355Z,100776
2018-02-10T03:18:14.484Z,100775
2018-02-10T03:23:19.082Z,100773
2018-02-10T03:28:22.175Z,100771
2018-02-10T03:33:26.614Z,100780
2018-02-10T03:38:29.714Z,100782
2018-02-10T03:43:32.865Z,100786
2018-02-10T03:48:35.959Z,100790
2018-02-10T03:53:39.803Z,100791
2018-02-10T03:58:42.921Z,100784
2018-02-10T04:03:46.007Z,100783
2018-02-10T04:08:50.641Z,100787
2018-02-10T04:13:54.507Z,100786
2018-02-10T04:18:57.595Z,100794
2018-02-10T04:24:02.426Z,100799
2018-02-10T04:29:07.076Z,100813
2018-02-10T04:34:10.591Z,100820
2018-02-10T04:39:15.039Z,100823
2018-02-10T04:44:18.547Z,100829
2018-02-10T04:49:22.416Z,100834
2018-02-10T04:54:25.499Z,100832
2018-02-10T04:59:28.627Z,100837
2018-02-10T05:04:31.734Z,100838
2018-02-10T05:09:35.255Z,100843
2018-02-10T05:14:39.687Z,100849
2018-02-10T05:19:44.171Z,100855
2018-02-10T05:24:48.753Z,100861
2018-02-10T05:29:52.196Z,100863
2018-02-10T05:34:55.683Z,100874
2018-02-10T05:40:00.141Z,100873
2018-02-10T05:45:03.659Z,100877
2018-02-10T05:50:06.759Z,100875
2018-02-10T05:55:10.652Z,100881
2018-02-10T06:00:15.100Z,100877
2018-02-10T06:05:18.982Z,100874
2018-02-10T06:10:23.449Z,100870
2018-02-10T06:15:26.928Z,100875
2018-02-10T06:20:30.815Z,100881
2018-02-10T06:25:35.299Z,100891
2018-02-10T06:30:39.929Z,100888
2018-02-10T06:35:43.815Z,100894
2018-02-10T06:40:47.120Z,100896
2018-02-10T06:45:50.995Z,100884
2018-02-10T06:50:54.883Z,100882
2018-02-10T06:55:57.988Z,100885
2018-02-10T07:01:01.127Z,100884
2018-02-10T07:06:04.211Z,100888
2018-02-10T07:11:09.429Z,100891
2018-02-10T07:16:13.301Z,100893
2018-02-10T07:21:17.848Z,100890
2018-02-10T07:26:22.435Z,100894
2018-02-10T07:31:26.867Z,100895
2018-02-10T07:36:30.356Z,100893
2018-02-10T07:41:33.463Z,100900
2018-02-10T07:46:37.063Z,100914
2018-02-10T07:51:40.168Z,100911
2018-02-10T07:56:43.257Z,100921
2018-02-10T08:01:47.738Z,100924
2018-02-10T08:06:51.648Z,100935
2018-02-10T08:11:55.545Z,100937
2018-02-10T08:16:59.805Z,100941
2018-02-10T08:22:04.811Z,100930
2018-02-10T08:27:09.473Z,100930
2018-02-10T08:32:13.923Z,100935
2018-02-10T08:37:17.016Z,100943
2018-02-10T08:42:20.887Z,100934
2018-02-10T08:47:24.412Z,100925
2018-02-10T08:52:28.851Z,100920
2018-02-10T08:57:32.844Z,100922
2018-02-10T09:02:36.688Z,100933
2018-02-10T09:07:41.317Z,100931
2018-02-10T09:12:45.760Z,100925
2018-02-10T09:17:49.279Z,100925
2018-02-10T09:22:54.292Z,100927
2018-02-10T09:27:57.845Z,100926
2018-02-10T09:33:02.316Z,100939
2018-02-10T09:38:06.795Z,100938
2018-02-10T09:43:11.041Z,100939
2018-02-10T09:48:15.654Z,100935
2018-02-10T09:53:19.877Z,100938
2018-02-10T09:58:23.357Z,100937
2018-02-10T10:03:27.867Z,100935
2018-02-10T10:08:31.715Z,100936
2018-02-10T10:13:35.574Z,100932
2018-02-10T10:18:38.704Z,100937
2018-02-10T10:23:41.794Z,100942
2018-02-10T10:28:44.963Z,100942
2018-02-10T10:33:49.403Z,100946
2018-02-10T10:38:52.898Z,100943
2018-02-10T10:43:57.344Z,100948
2018-02-10T10:49:00.874Z,100949
2018-02-10T10:54:05.344Z,100941
2018-02-10T10:59:09.015Z,100942
2018-02-10T11:04:12.993Z,100943
2018-02-10T11:09:16.855Z,100946
2018-02-10T11:14:21.282Z,100938
2018-02-10T11:19:25.168Z,100928
2018-02-10T11:24:29.654Z,100936
2018-02-10T11:29:33.528Z,100933
2018-02-10T11:34:36.612Z,100939
2018-02-10T11:39:41.059Z,100927
2018-02-10T11:44:44.567Z,100924
2018-02-10T11:49:47.656Z,100917
2018-02-10T11:54:52.115Z,100918
2018-02-10T11:59:55.595Z,100920
2018-02-10T12:04:59.812Z,100910
2018-02-10T12:10:02.968Z,100911
2018-02-10T12:15:06.835Z,100913
2018-02-10T12:20:09.935Z,100910
2018-02-10T12:25:13.412Z,100910
2018-02-10T12:30:16.927Z,100909
2018-02-10T12:35:21.165Z,100898
2018-02-10T12:40:25.019Z,100897
2018-02-10T12:45:28.096Z,100892
2018-02-10T12:50:31.631Z,100883
2018-02-10T12:55:35.125Z,100891
2018-02-10T13:00:39.587Z,100886
2018-02-10T13:05:42.699Z,100882
2018-02-10T13:10:47.333Z,100887
2018-02-10T13:15:51.765Z,100877
2018-02-10T13:20:55.260Z,100872
2018-02-10T13:25:59.510Z,100875
2018-02-10T13:31:03.351Z,100872
2018-02-10T13:36:07.791Z,100870
2018-02-10T13:41:12.263Z,100869
2018-02-10T13:46:16.694Z,100859
2018-02-10T13:51:20.524Z,100865
2018-02-10T13:56:23.599Z,100864
2018-02-10T14:01:27.165Z,100860
2018-02-10T14:06:30.676Z,100858
2018-02-10T14:11:35.334Z,100856
2018-02-10T14:16:39.605Z,100856
2018-02-10T14:21:43.075Z,100847
2018-02-10T14:26:47.587Z,100847
2018-02-10T14:31:51.442Z,100843
2018-02-10T14:36:55.923Z,100842
2018-02-10T14:42:00.502Z,100845
2018-02-10T14:47:04.244Z,100843
2018-02-10T14:52:08.682Z,100848
2018-02-10T14:57:13.163Z,100849
2018-02-10T15:02:17.339Z,100851
2018-02-10T15:07:21.795Z,100849
2018-02-10T15:12:26.231Z,100854
2018-02-10T15:17:30.725Z,100852
2018-02-10T15:22:34.263Z,100856
2018-02-10T15:27:37.736Z,100861
2018-02-10T15:32:59.519Z,100860
2018-02-10T15:38:02.606Z,100862
2018-02-10T15:43:07.035Z,100857
2018-02-10T15:48:11.641Z,100855
2018-02-10T15:53:15.863Z,100861
2018-02-10T15:58:19.725Z,100859
2018-02-10T16:03:24.165Z,100863
2018-02-10T16:08:28.602Z,100856
2018-02-10T16:13:32.825Z,100859
2018-02-10T16:18:37.611Z,100863
2018-02-10T16:23:41.837Z,100854
2018-02-10T16:28:46.058Z,100847
2018-02-10T16:33:50.512Z,100854
2018-02-10T16:38:55.104Z,100852
2018-02-10T16:43:58.182Z,100844
2018-02-10T16:49:01.304Z,100837
2018-02-10T16:54:05.743Z,100830
2018-02-10T16:59:10.166Z,100832
2018-02-10T17:04:14.774Z,100828
2018-02-10T17:09:18.257Z,100830
2018-02-10T17:14:22.141Z,100826
2018-02-10T17:19:25.951Z,100837
2018-02-10T17:24:29.059Z,100826
2018-02-10T17:29:33.496Z,100822
2018-02-10T17:34:38.079Z,100819
2018-02-10T17:39:41.161Z,100817
2018-02-10T17:44:45.594Z,100820
2018-02-10T17:49:48.678Z,100826
2018-02-10T17:54:53.172Z,100830
2018-02-10T17:59:56.663Z,100819
2018-02-10T18:05:01.112Z,100810
2018-02-10T18:10:05.698Z,100806
2018-02-10T18:15:08.783Z,100799
2018-02-10T18:20:12.631Z,100799
2018-02-10T18:25:15.719Z,100790
2018-02-10T18:30:18.826Z,100790
2018-02-10T18:35:21.907Z,100785
2018-02-10T18:40:24.988Z,100777
2018-02-10T18:45:29.585Z,100772
2018-02-10T18:50:32.680Z,100764
2018-02-10T18:55:35.763Z,100760
2018-02-10T19:00:39.604Z,100754
2018-02-10T19:05:42.733Z,100745
2018-02-10T19:10:45.811Z,100758
2018-02-10T19:15:50.244Z,100747
2018-02-10T19:20:53.737Z,100736
2018-02-10T19:25:56.811Z,100730
2018-02-10T19:31:01.271Z,100728
2018-02-10T19:36:05.483Z,100715
2018-02-10T19:41:08.966Z,100715
2018-02-10T19:46:12.800Z,100718
2018-02-10T19:51:15.876Z,100704
2018-02-10T19:56:19.512Z,100706
2018-02-10T20:01:23.002Z,100697
2018-02-10T20:06:26.976Z,100686
2018-02-10T20:11:30.067Z,100670
2018-02-10T20:16:33.904Z,100666
2018-02-10T20:21:36.981Z,100661
2018-02-10T20:26:40.115Z,100659
2018-02-10T20:31:43.892Z,100655
2018-02-10T20:36:48.165Z,100649
2018-02-10T20:41:51.258Z,100642
2018-02-10T20:46:55.689Z,100642
2018-02-10T20:52:00.324Z,100648
2018-02-10T20:57:05.870Z,100633
2018-02-10T21:02:09.755Z,100623
2018-02-10T21:07:12.895Z,100631
2018-02-10T21:12:17.553Z,100638
2018-02-10T21:17:22.050Z,100634
2018-02-10T21:22:26.639Z,100631
2018-02-10T21:27:30.872Z,100620
2018-02-10T21:32:35.313Z,100606
2018-02-10T21:37:39.956Z,100595
2018-02-10T21:42:44.398Z,100585
2018-02-10T21:47:48.306Z,100582
2018-02-10T21:52:52.150Z,100579
2018-02-10T21:57:56.787Z,100567
2018-02-10T22:03:01.272Z,100563
2018-02-10T22:08:05.500Z,100562
2018-02-10T22:13:09.011Z,100556
2018-02-10T22:18:12.088Z,100539
2018-02-10T22:23:16.547Z,100522
2018-02-10T22:28:21.140Z,100504
2018-02-10T22:33:24.244Z,100502
2018-02-10T22:38:28.095Z,100481
2018-02-10T22:43:31.611Z,100477
2018-02-10T22:48:35.193Z,100462
2018-02-10T22:53:38.647Z,100458
2018-02-10T22:58:42.143Z,100454
2018-02-10T23:03:45.251Z,100441
2018-02-10T23:08:49.678Z,100425
2018-02-10T23:13:53.942Z,100420
2018-02-10T23:18:58.151Z,100421
2018-02-10T23:24:02.401Z,100404
2018-02-10T23:29:06.240Z,100404
2018-02-10T23:34:10.715Z,100389
2018-02-10T23:39:15.140Z,100382
2018-02-10T23:44:19.397Z,100358
2018-02-10T23:49:23.831Z,100342
2018-02-10T23:54:28.433Z,100328
2018-02-10T23:59:32.868Z,100320
